Schedule Details


Flight Number: CTN455
Departure: Schiphol (EHAM) at 18:15
Arrival: Pula (LDPL) at 20:05
Route: EDUPO UZ738 NAPRO Z739 DEPAD UZ738 MISGO UZ741 GMH UL603 DINKU UM867 BURAM T104 WLD UM867 VAROB DCT GIMIX DCT GIRDA

Weather Information
EHAM 172325Z 06004KT 020V080 9000 NSC 19/17 Q1014 NOSIG
LDPL 172300Z 07004KT CAVOK 19/16 Q1017
Schedule Frequency

Route Map